Extreme weather reports worldwide

Thunderstorm

Station
 
Location
 
Name
 
Wind
Knots
Gust
Knots
Vis
SM
Temp/Dew
C
Baro
inHg
METAR
 
DZA FMCZ Dzaoudzi, YT Dzaoudzi Pamandzi International Airport 7 6.21 26/24 29.85 FMCZ 240300Z AUTO 32007KT 280V350 9999 VCTS SCT015/// SCT027/// BKN070/// ///CB 26/24 Q1011 TEMPO 3500 TSRA
PPB SBDN Presidente Prudente, BR Presidente Prudente Airport 7 6.21 24/19 30.00 SBDN 240300Z 17007KT 9999 VCTS FEW060CB 24/19 Q1016
GYN SBGO Goiânia, BR Santa Genoveva Airport 5 6.21 24/18 30.03 SBGO 240300Z 13005KT 9999 VCTS FEW040CB 24/18 Q1017
ROK YBRK Rockhampton, AU Rockhampton Airport 4 6.21 23/22 29.85 YBRK 240300Z AUTO 12004KT 9999 VCTS SHRA SCT018 BKN037 BKN055 23/22 Q1011 RETS
HLP WIHH Jakarta, ID Halim Perdanakusuma International Airport 3 1.86 24/24 29.88 WIHH 240300Z 31003KT 3000 -TSRA BKN012 FEW018CB 24/24 Q1012 RMK CB TO NE

Station
 
Location
 
Name
 
Wind
Knots
Gust
Knots
Vis
SM
Temp/Dew
C
Baro
inHg
METAR
 
NOS FMNN Nosy Be, MG Fascene Airport 2 6.21 / 29.85 FMNN 240300Z 20002KT 9999 VCTS BKN020CB 25/// Q1011
RBR SBRB Rio Branco, BR Rio Branco-Plácido de Castro International Airport 0 4.35 23/23 29.91 SBRB 240300Z 00000KT 7000 -RA VCTS BKN005 SCT020 FEW030CB 23/23 Q1013